createdAt,value
2018-11-22T12:16:14.406Z,54.27
2018-11-22T12:18:16.390Z,48.77
2018-11-22T12:20:18.794Z,51.43
2018-11-22T12:22:20.790Z,51.20
2018-11-22T12:24:22.773Z,52.83
2018-11-22T12:26:24.769Z,56.03
2018-11-22T12:28:26.761Z,55.07
2018-11-22T12:30:30.246Z,48.97
2018-11-22T12:32:33.685Z,54.77
2018-11-22T12:34:41.351Z,50.03
2018-11-22T12:36:49.192Z,45.93
2018-11-22T12:38:51.390Z,52.70
2018-11-22T12:40:53.381Z,57.40
2018-11-22T12:42:55.387Z,53.80
2018-11-22T12:45:02.478Z,56.33
2018-11-22T12:47:04.961Z,54.50
2018-11-22T12:49:06.949Z,56.07
2018-11-22T12:51:09.056Z,51.83
2018-11-22T12:53:10.985Z,48.50
2018-11-22T12:55:12.974Z,54.43
2018-11-22T12:57:14.961Z,51.23
2018-11-22T12:59:16.970Z,57.90
2018-11-22T13:01:18.941Z,52.93
2018-11-22T13:03:20.926Z,53.97
2018-11-22T13:05:22.925Z,59.30
2018-11-22T13:07:24.921Z,53.70
2018-11-22T13:09:26.908Z,56.50
2018-11-22T13:11:28.890Z,53.50
2018-11-22T13:13:30.885Z,58.20
2018-11-22T13:15:32.873Z,55.40
2018-11-22T13:17:34.861Z,59.87
2018-11-22T13:19:36.853Z,50.73
2018-11-22T13:21:38.846Z,55.13
2018-11-22T13:23:40.842Z,59.48
2018-11-22T13:25:42.857Z,54.40
2018-11-22T13:27:44.862Z,54.20
2018-11-22T13:29:46.850Z,62.43
2018-11-22T13:31:48.830Z,59.87
2018-11-22T13:33:50.818Z,57.67
2018-11-22T13:35:53.000Z,54.17
2018-11-22T13:37:55.454Z,58.97
2018-11-22T13:39:57.425Z,58.53
2018-11-22T13:41:59.426Z,59.50
2018-11-22T13:44:01.544Z,60.33
2018-11-22T13:46:03.521Z,60.80
2018-11-22T13:48:06.251Z,61.40
2018-11-22T13:50:15.209Z,58.97
2018-11-22T13:52:17.218Z,57.70
2018-11-22T13:54:19.201Z,60.63
2018-11-22T13:56:21.194Z,59.43
2018-11-22T13:58:23.194Z,62.57
2018-11-22T14:00:26.522Z,59.43
2018-11-22T14:02:28.510Z,62.37
2018-11-22T14:04:30.505Z,64.90
2018-11-22T14:06:32.495Z,61.67
2018-11-22T14:08:34.502Z,55.63
2018-11-22T14:10:36.490Z,61.70
2018-11-22T14:12:38.894Z,62.30
2018-11-22T14:14:40.878Z,60.43
2018-11-22T14:16:42.871Z,59.17
2018-11-22T14:18:44.872Z,62.33
2018-11-22T14:20:46.907Z,62.03
2018-11-22T14:22:48.994Z,61.57
2018-11-22T14:24:50.990Z,51.43
2018-11-22T14:26:52.973Z,61.20
2018-11-22T14:28:55.082Z,61.03
2018-11-22T14:30:57.065Z,62.17
2018-11-22T14:32:59.182Z,59.73
2018-11-22T14:35:01.206Z,65.70
2018-11-22T14:37:03.218Z,60.97
2018-11-22T14:39:06.302Z,63.07
2018-11-22T14:41:08.277Z,64.07
2018-11-22T14:43:10.274Z,66.17
2018-11-22T14:45:13.305Z,66.43
2018-11-22T14:47:15.301Z,59.53
2018-11-22T14:49:17.293Z,62.00
2018-11-22T14:51:30.018Z,61.27
2018-11-22T14:53:32.009Z,60.27
2018-11-22T14:55:34.029Z,67.80
2018-11-22T14:57:36.222Z,59.60
2018-11-22T14:59:38.211Z,63.77
2018-11-22T15:01:40.198Z,63.10
2018-11-22T15:03:42.193Z,64.10
2018-11-22T15:05:44.181Z,64.83
2018-11-22T15:07:46.162Z,60.57
2018-11-22T15:09:48.158Z,62.40
2018-11-22T15:11:50.145Z,62.80
2018-11-22T15:13:52.205Z,66.47
2018-11-22T15:15:54.197Z,65.17
2018-11-22T15:17:56.215Z,62.50
2018-11-22T15:19:58.223Z,60.70
2018-11-22T15:22:00.210Z,58.40
2018-11-22T15:24:02.202Z,65.73
2018-11-22T15:26:04.294Z,61.43
2018-11-22T15:28:06.314Z,66.00
2018-11-22T15:30:10.222Z,60.93
2018-11-22T15:32:12.398Z,66.87
2018-11-22T15:34:14.555Z,65.57
2018-11-22T15:36:16.541Z,69.27
2018-11-22T15:38:18.530Z,71.63
2018-11-22T15:40:21.761Z,64.77
2018-11-22T15:42:23.799Z,66.92
2018-11-22T15:44:25.794Z,64.23
2018-11-22T15:46:27.781Z,62.57
2018-11-22T15:48:29.790Z,68.57
2018-11-22T15:50:31.777Z,65.03
2018-11-22T15:52:33.765Z,65.43
2018-11-22T15:54:35.758Z,66.87
2018-11-22T15:56:37.748Z,64.03
2018-11-22T15:58:39.761Z,65.35
2018-11-22T16:00:41.745Z,62.47
2018-11-22T16:02:44.629Z,84.07
2018-11-22T16:04:46.618Z,61.00
2018-11-22T16:06:48.614Z,63.07
2018-11-22T16:08:50.609Z,62.57
2018-11-22T16:10:53.329Z,63.87
2018-11-22T16:12:56.997Z,67.97
2018-11-22T16:14:58.990Z,65.90
2018-11-22T16:17:01.001Z,45.17
2018-11-22T16:19:03.284Z,64.77
2018-11-22T16:21:05.485Z,66.73
2018-11-22T16:23:07.520Z,67.12
2018-11-22T16:25:10.922Z,69.13
2018-11-22T16:27:12.972Z,63.80
2018-11-22T16:29:14.994Z,64.47
2018-11-22T16:31:17.942Z,63.90
2018-11-22T16:33:19.939Z,62.70
2018-11-22T16:35:22.864Z,62.53
2018-11-22T16:37:24.870Z,60.83
2018-11-22T16:39:26.868Z,61.00
2018-11-22T16:41:28.861Z,65.00
2018-11-22T16:43:30.861Z,60.10
2018-11-22T16:45:35.861Z,56.67
2018-11-22T16:47:37.869Z,62.50
2018-11-22T16:49:39.870Z,59.73
2018-11-22T16:51:41.877Z,47.80
2018-11-22T16:53:43.874Z,57.90
2018-11-22T16:55:46.028Z,61.60
2018-11-22T16:57:48.861Z,64.58
2018-11-22T16:59:50.857Z,66.00
2018-11-22T17:01:53.210Z,62.50
2018-11-22T17:03:55.197Z,63.50
2018-11-22T17:05:57.189Z,53.63
2018-11-22T17:07:59.914Z,63.60
2018-11-22T17:10:01.911Z,59.30
2018-11-22T17:12:04.041Z,65.13
2018-11-22T17:14:06.034Z,67.67
2018-11-22T17:16:08.051Z,58.63
2018-11-22T17:18:10.633Z,56.13
2018-11-22T17:20:13.722Z,62.10
2018-11-22T17:22:15.721Z,63.33
2018-11-22T17:24:17.722Z,57.23
2018-11-22T17:26:19.716Z,65.07
2018-11-22T17:28:21.721Z,55.27
2018-11-22T17:30:25.381Z,66.07
2018-11-22T17:32:27.373Z,59.57
2018-11-22T17:34:29.361Z,63.57
2018-11-22T17:36:31.353Z,62.37
2018-11-22T17:38:33.342Z,62.30
2018-11-22T17:40:37.034Z,62.20
2018-11-22T17:42:39.037Z,56.48
2018-11-22T17:44:41.025Z,62.67
2018-11-22T17:46:43.017Z,57.13
2018-11-22T17:48:45.017Z,60.33
2018-11-22T17:50:47.609Z,65.77
2018-11-22T17:52:49.642Z,59.30
2018-11-22T17:54:51.641Z,58.30
2018-11-22T17:56:53.621Z,59.90
2018-11-22T17:58:55.617Z,61.57
2018-11-22T18:00:57.614Z,58.67
2018-11-22T18:03:00.685Z,62.83
2018-11-22T18:05:02.685Z,59.07
2018-11-22T18:07:05.018Z,58.37
2018-11-22T18:09:08.126Z,62.63
2018-11-22T18:11:10.113Z,64.80
2018-11-22T18:13:12.121Z,53.07
2018-11-22T18:15:15.309Z,60.80
2018-11-22T18:17:17.305Z,59.40
2018-11-22T18:19:19.289Z,62.20
2018-11-22T18:21:21.294Z,61.27
2018-11-22T18:23:23.274Z,60.67
2018-11-22T18:25:26.745Z,54.20
2018-11-22T18:27:28.784Z,60.70
2018-11-22T18:29:30.769Z,58.20
2018-11-22T18:31:32.757Z,58.80
2018-11-22T18:33:34.749Z,60.40
2018-11-22T18:35:36.730Z,62.70
2018-11-22T18:37:38.965Z,63.10
2018-11-22T18:39:41.174Z,62.10
2018-11-22T18:41:43.174Z,60.70
2018-11-22T18:43:45.166Z,60.50
2018-11-22T18:45:47.873Z,56.93
2018-11-22T18:47:49.891Z,56.07
2018-11-22T18:49:51.886Z,63.37
2018-11-22T18:51:53.870Z,59.10
2018-11-22T18:53:55.862Z,63.87
2018-11-22T18:55:57.852Z,62.97
2018-11-22T18:57:59.829Z,64.30
2018-11-22T19:00:01.998Z,62.80
2018-11-22T19:02:04.468Z,56.43
2018-11-22T19:04:06.478Z,62.20
2018-11-22T19:06:08.469Z,62.17
2018-11-22T19:08:10.462Z,59.27
2018-11-22T19:10:16.493Z,59.40
2018-11-22T19:12:18.514Z,62.60
2018-11-22T19:14:20.505Z,61.60
2018-11-22T19:16:22.521Z,63.00
2018-11-22T19:18:24.514Z,62.60
2018-11-22T19:20:28.842Z,60.73
2018-11-22T19:22:31.113Z,57.20
2018-11-22T19:24:33.114Z,60.47
2018-11-22T19:26:35.113Z,60.23
2018-11-22T19:28:37.097Z,61.80
2018-11-22T19:30:40.686Z,59.17
2018-11-22T19:32:43.533Z,60.37
2018-11-22T19:34:45.550Z,60.57
2018-11-22T19:36:47.546Z,61.53
2018-11-22T19:38:49.542Z,60.63
2018-11-22T19:40:51.537Z,59.97
2018-11-22T19:42:54.589Z,60.77
2018-11-22T19:44:56.581Z,58.75
2018-11-22T19:46:58.597Z,55.50
2018-11-22T19:49:00.577Z,53.47
2018-11-22T19:51:05.776Z,56.17
2018-11-22T19:53:06.233Z,56.00
2018-11-22T19:55:10.381Z,57.57
2018-11-22T19:57:12.373Z,60.33
2018-11-22T19:59:14.366Z,54.23
2018-11-22T20:01:16.346Z,55.60
2018-11-22T20:03:18.346Z,53.77
2018-11-22T20:05:21.157Z,57.47
2018-11-22T20:07:23.155Z,57.23
2018-11-22T20:09:25.161Z,54.73
2018-11-22T20:11:27.150Z,57.40
2018-11-22T20:13:29.152Z,56.40
2018-11-22T20:15:31.562Z,56.93
2018-11-22T20:17:33.538Z,53.37
2018-11-22T20:19:35.574Z,49.60
2018-11-22T20:21:37.566Z,53.92
2018-11-22T20:23:39.577Z,54.47
2018-11-22T20:25:41.565Z,54.40
2018-11-22T20:27:43.834Z,52.00
2018-11-22T20:29:46.630Z,53.00
2018-11-22T20:31:48.626Z,44.67
2018-11-22T20:33:50.618Z,53.40
2018-11-22T20:38:01.414Z,48.57
2018-11-22T20:40:03.734Z,53.67
2018-11-22T20:42:12.354Z,52.40
2018-11-22T20:44:14.341Z,54.47
2018-11-22T20:46:16.325Z,52.37
2018-11-22T20:48:18.328Z,53.90
2018-11-22T20:50:21.761Z,55.70
2018-11-22T20:52:23.826Z,54.70
2018-11-22T20:54:25.793Z,51.23
2018-11-22T20:56:27.773Z,53.17
2018-11-22T20:58:29.765Z,49.27
2018-11-22T21:00:34.125Z,53.47
2018-11-22T21:02:36.134Z,55.77
2018-11-22T21:04:38.126Z,53.83
2018-11-22T21:06:40.122Z,58.33
2018-11-22T21:08:48.441Z,53.63
2018-11-22T21:10:44.118Z,56.37
2018-11-22T21:12:46.122Z,54.27
2018-11-22T21:14:48.114Z,55.20
2018-11-22T21:16:50.100Z,54.97
2018-11-22T21:18:52.105Z,55.83
2018-11-22T21:20:54.102Z,57.87
2018-11-22T21:22:56.149Z,59.30
2018-11-22T21:24:58.130Z,55.67
2018-11-22T21:27:00.114Z,60.03
2018-11-22T21:29:02.113Z,56.03
2018-11-22T21:31:04.098Z,60.00
2018-11-22T21:33:06.173Z,60.10
2018-11-22T21:35:08.158Z,60.53
2018-11-22T21:37:10.146Z,57.00
2018-11-22T21:39:12.665Z,49.87
2018-11-22T21:41:14.673Z,57.73
2018-11-22T21:43:16.667Z,58.80
2018-11-22T21:45:19.869Z,53.73
2018-11-22T21:47:21.875Z,57.40
2018-11-22T21:49:23.875Z,54.33
2018-11-22T21:51:25.858Z,56.17
2018-11-22T21:53:27.850Z,58.37
2018-11-22T21:55:30.281Z,55.57
2018-11-22T21:57:32.265Z,58.13
2018-11-22T21:59:34.258Z,55.77
2018-11-22T22:01:36.254Z,57.27
2018-11-22T22:03:38.273Z,55.87
2018-11-22T22:05:40.588Z,59.33
2018-11-22T22:07:42.593Z,58.17
2018-11-22T22:09:44.584Z,56.10
2018-11-22T22:11:46.578Z,57.97
2018-11-22T22:13:48.577Z,56.23
2018-11-22T22:15:50.578Z,54.97
2018-11-22T22:19:17.189Z,56.40
2018-11-22T22:21:19.171Z,57.17
2018-11-22T22:23:21.166Z,54.53
2018-11-22T22:25:23.874Z,52.20
2018-11-22T22:27:25.867Z,56.00
2018-11-22T22:29:27.861Z,55.27
2018-11-22T22:31:29.845Z,58.40
2018-11-22T22:33:31.834Z,45.17
2018-11-22T22:35:33.918Z,56.92
2018-11-22T22:37:36.290Z,53.53
2018-11-22T22:39:38.274Z,55.23
2018-11-22T22:41:40.295Z,53.40
2018-11-22T22:43:42.265Z,55.07
2018-11-22T22:45:44.244Z,57.30
2018-11-22T22:47:47.109Z,58.00
2018-11-22T22:49:49.107Z,55.80
2018-11-22T22:51:51.437Z,53.13
2018-11-22T22:53:53.498Z,55.10
2018-11-22T22:55:55.478Z,57.20
2018-11-22T22:57:57.470Z,54.60
2018-11-22T22:59:59.465Z,51.30
2018-11-22T23:02:01.454Z,57.83
2018-11-22T23:04:03.489Z,51.67
2018-11-22T23:06:05.497Z,56.70
2018-11-22T23:08:07.502Z,50.90
2018-11-22T23:10:09.505Z,49.00
2018-11-22T23:12:11.498Z,50.23
2018-11-22T23:14:13.497Z,48.30
2018-11-22T23:16:15.489Z,52.77
2018-11-22T23:18:17.513Z,56.70
2018-11-22T23:20:20.810Z,51.97
2018-11-22T23:22:22.836Z,55.23
2018-11-22T23:24:24.826Z,52.73
2018-11-22T23:26:26.809Z,51.33
2018-11-22T23:28:28.819Z,53.17
2018-11-22T23:30:32.029Z,55.27
2018-11-22T23:32:34.006Z,54.23
2018-11-22T23:34:35.998Z,53.50
2018-11-22T23:36:37.994Z,47.00
2018-11-22T23:38:39.997Z,55.40
2018-11-22T23:40:41.985Z,53.43
2018-11-22T23:42:44.193Z,48.90
2018-11-22T23:44:46.190Z,51.40
2018-11-22T23:46:48.186Z,50.07
2018-11-22T23:48:50.182Z,51.97
2018-11-22T23:50:52.178Z,53.57
2018-11-22T23:52:55.329Z,44.93
2018-11-22T23:54:57.337Z,49.90
2018-11-22T23:56:59.390Z,44.53
2018-11-22T23:59:01.422Z,47.53
